createdAt,value
2022-10-17T00:03:06.592Z,16.70
2022-10-17T00:07:08.253Z,21.00
2022-10-17T00:11:15.922Z,19.63
2022-10-17T00:15:19.612Z,18.17
2022-10-17T00:19:21.246Z,11.85
2022-10-17T00:23:23.073Z,16.63
2022-10-17T00:27:24.944Z,11.27
2022-10-17T00:31:27.030Z,14.48
2022-10-17T00:35:28.658Z,19.63
2022-10-17T00:39:30.309Z,16.20
2022-10-17T00:44:00.273Z,14.23
2022-10-17T00:48:08.486Z,10.70
2022-10-17T00:52:18.549Z,16.08
2022-10-17T00:56:21.268Z,17.27
2022-10-17T01:00:24.423Z,15.88
2022-10-17T01:04:26.250Z,13.48
2022-10-17T01:08:28.061Z,13.73
2022-10-17T01:12:45.503Z,11.80
2022-10-17T01:17:02.788Z,11.05
2022-10-17T01:21:29.427Z,8.98
2022-10-17T01:25:48.080Z,10.43
2022-10-17T01:30:35.762Z,12.77
2022-10-17T01:34:58.694Z,13.20
2022-10-17T01:39:15.204Z,13.20
2022-10-17T01:47:31.021Z,18.27
2022-10-17T01:51:52.460Z,21.98
2022-10-17T02:00:08.731Z,14.80
2022-10-17T02:04:16.369Z,9.27
2022-10-17T02:08:29.642Z,8.60
2022-10-17T02:12:34.727Z,9.48
2022-10-17T02:16:36.849Z,9.50
2022-10-17T02:21:07.529Z,8.80
2022-10-17T02:25:47.260Z,9.70
2022-10-17T02:30:04.226Z,15.00
2022-10-17T02:34:12.278Z,28.10
2022-10-17T02:38:14.585Z,20.92
2022-10-17T02:42:20.072Z,15.57
2022-10-17T02:46:24.781Z,14.80
2022-10-17T02:50:49.037Z,16.65
2022-10-17T02:54:56.783Z,15.88
2022-10-17T02:59:00.184Z,22.98
2022-10-17T03:03:01.898Z,22.30
2022-10-17T03:07:03.668Z,16.88
2022-10-17T03:11:05.651Z,21.45
2022-10-17T03:15:09.655Z,18.38
2022-10-17T03:19:11.605Z,11.25
2022-10-17T03:23:14.058Z,15.95
2022-10-17T03:27:16.341Z,27.23
2022-10-17T03:31:19.693Z,23.85
2022-10-17T03:35:22.686Z,16.02
2022-10-17T03:39:25.872Z,13.65
2022-10-17T03:43:29.392Z,28.40
2022-10-17T03:47:31.498Z,22.10
2022-10-17T03:51:35.137Z,15.43
2022-10-17T03:55:41.309Z,17.08
2022-10-17T03:59:43.260Z,14.82
2022-10-17T04:03:51.829Z,19.48
2022-10-17T04:07:53.621Z,15.18
2022-10-17T04:12:02.098Z,13.73
2022-10-17T04:16:08.495Z,12.57
2022-10-17T04:20:15.146Z,14.35
2022-10-17T04:24:17.155Z,14.85
2022-10-17T04:28:32.140Z,11.90
2022-10-17T04:32:38.232Z,12.70
2022-10-17T04:36:55.143Z,11.07
2022-10-17T04:40:58.595Z,12.20
2022-10-17T04:45:00.575Z,13.00
2022-10-17T04:49:03.016Z,13.65
2022-10-17T04:53:05.574Z,15.80
2022-10-17T04:57:07.444Z,13.18
2022-10-17T05:01:12.394Z,12.30
2022-10-17T05:05:16.579Z,12.35
2022-10-17T05:09:20.764Z,14.70
2022-10-17T05:13:22.468Z,13.85
2022-10-17T05:17:24.491Z,11.23
2022-10-17T05:21:29.314Z,14.88
2022-10-17T05:25:31.984Z,10.90
2022-10-17T05:29:35.230Z,16.65
2022-10-17T05:33:45.745Z,23.08
2022-10-17T05:37:49.220Z,11.10
2022-10-17T05:41:52.749Z,10.48
2022-10-17T05:45:55.090Z,14.25
2022-10-17T05:49:57.697Z,15.80
2022-10-17T05:54:07.262Z,19.98
2022-10-17T05:58:17.676Z,15.75
2022-10-17T06:02:29.322Z,19.30
2022-10-17T06:06:31.270Z,12.68
2022-10-17T06:10:33.106Z,20.85
2022-10-17T06:14:35.491Z,24.65
2022-10-17T06:18:38.738Z,17.60
2022-10-17T06:22:40.695Z,15.35
2022-10-17T06:26:49.816Z,13.65
2022-10-17T06:30:52.141Z,20.73
2022-10-17T06:34:53.934Z,19.25
2022-10-17T06:38:55.720Z,23.15
2022-10-17T06:43:09.327Z,25.05
2022-10-17T06:47:28.714Z,18.00
2022-10-17T06:51:37.752Z,17.33
2022-10-17T06:55:43.059Z,19.67
2022-10-17T07:00:00.577Z,21.67
2022-10-17T07:04:18.202Z,20.42
2022-10-17T07:08:19.927Z,21.25
2022-10-17T07:12:21.849Z,19.83
2022-10-17T07:16:24.651Z,25.58
2022-10-17T07:20:34.869Z,22.23
2022-10-17T07:24:37.134Z,20.45
2022-10-17T07:28:53.566Z,22.25
2022-10-17T07:33:06.984Z,20.60
2022-10-17T07:37:09.970Z,20.73
2022-10-17T07:41:17.896Z,22.98
2022-10-17T07:45:23.852Z,20.95
2022-10-17T07:49:26.619Z,18.35
2022-10-17T07:53:28.349Z,26.33
2022-10-17T07:57:30.000Z,20.58
2022-10-17T08:01:31.701Z,22.20
2022-10-17T08:05:34.167Z,17.20
2022-10-17T08:09:35.784Z,18.02
2022-10-17T08:13:40.214Z,13.45
2022-10-17T08:17:41.875Z,21.30
2022-10-17T08:21:44.848Z,17.60
2022-10-17T08:25:46.605Z,23.55
2022-10-17T08:29:48.856Z,29.52
2022-10-17T08:33:50.842Z,24.02
2022-10-17T08:37:52.536Z,19.08
2022-10-17T08:42:00.026Z,19.38
2022-10-17T08:46:05.132Z,22.33
2022-10-17T08:50:13.922Z,17.88
2022-10-17T08:54:15.517Z,17.23
2022-10-17T08:58:27.862Z,15.18
2022-10-17T09:02:55.743Z,13.45
2022-10-17T09:07:06.154Z,15.18
2022-10-17T09:11:36.198Z,15.88
2022-10-17T09:15:55.921Z,14.75
2022-10-17T09:20:00.656Z,13.80
2022-10-17T09:24:15.821Z,12.80
2022-10-17T09:28:25.273Z,13.23
2022-10-17T09:32:27.240Z,14.82
2022-10-17T09:36:32.782Z,15.90
2022-10-17T09:40:35.364Z,15.52
2022-10-17T09:44:48.968Z,10.45
2022-10-17T09:48:55.907Z,8.05
2022-10-17T09:57:06.141Z,9.73
2022-10-17T10:01:30.054Z,8.57
2022-10-17T10:05:31.706Z,9.20
2022-10-17T10:09:38.150Z,6.82
2022-10-17T10:13:42.768Z,7.45
2022-10-17T10:17:44.432Z,8.13
2022-10-17T10:21:58.269Z,8.63
2022-10-17T10:26:04.139Z,7.07
2022-10-17T10:30:06.588Z,6.70
2022-10-17T10:34:16.648Z,7.25
2022-10-17T10:38:18.441Z,7.80
2022-10-17T10:42:28.903Z,6.07
2022-10-17T10:46:30.663Z,5.70
2022-10-17T10:50:32.362Z,6.75
2022-10-17T10:54:42.358Z,6.90
2022-10-17T10:59:02.955Z,6.03
2022-10-17T11:03:19.339Z,8.57
2022-10-17T11:07:28.636Z,6.70
2022-10-17T11:11:45.596Z,7.75
2022-10-17T11:15:53.749Z,7.78
2022-10-17T11:20:18.103Z,6.43
2022-10-17T11:24:33.547Z,5.60
2022-10-17T11:28:35.255Z,6.28
2022-10-17T11:32:46.226Z,7.60
2022-10-17T11:36:52.258Z,7.18
2022-10-17T11:45:05.649Z,6.15
2022-10-17T11:49:35.464Z,7.82
2022-10-17T11:53:57.760Z,7.55
2022-10-17T11:58:04.801Z,7.00
2022-10-17T12:02:20.359Z,6.88
2022-10-17T12:06:49.207Z,7.40
2022-10-17T12:11:01.208Z,6.10
2022-10-17T12:15:24.373Z,5.72
2022-10-17T12:19:30.773Z,5.70
2022-10-17T12:23:32.882Z,6.50
2022-10-17T12:27:45.930Z,6.97
2022-10-17T12:31:47.669Z,6.97
2022-10-17T12:35:51.616Z,7.65
2022-10-17T12:39:53.302Z,7.35
2022-10-17T12:43:55.286Z,7.50
2022-10-17T12:47:57.003Z,8.23
2022-10-17T12:52:22.252Z,8.90
2022-10-17T12:56:47.939Z,7.45
2022-10-17T13:01:25.305Z,7.93
2022-10-17T13:05:33.172Z,7.72
2022-10-17T13:09:42.644Z,7.63
2022-10-17T13:13:54.107Z,7.07
2022-10-17T13:17:59.691Z,7.35
2022-10-17T13:22:07.121Z,7.00
2022-10-17T13:26:11.791Z,6.25
2022-10-17T13:30:27.946Z,6.05
2022-10-17T13:34:34.261Z,6.32
2022-10-17T13:38:39.015Z,8.80
2022-10-17T13:42:43.823Z,6.38
2022-10-17T13:46:46.329Z,6.60
2022-10-17T13:50:51.814Z,6.55
2022-10-17T13:54:54.415Z,7.43
2022-10-17T13:58:59.661Z,6.13
2022-10-17T14:03:01.392Z,7.45
2022-10-17T14:07:03.422Z,6.65
2022-10-17T14:11:23.567Z,7.13
2022-10-17T14:15:30.498Z,7.05
2022-10-17T14:19:37.181Z,7.93
2022-10-17T14:23:43.727Z,6.68
2022-10-17T14:28:03.464Z,7.78
2022-10-17T14:32:10.475Z,6.13
2022-10-17T14:36:12.633Z,5.93
2022-10-17T14:40:17.616Z,6.28
2022-10-17T14:44:19.238Z,5.93
2022-10-17T14:48:23.976Z,7.03
2022-10-17T14:52:28.131Z,7.53
2022-10-17T14:56:43.238Z,6.47
2022-10-17T15:00:44.905Z,6.38
2022-10-17T15:04:46.630Z,8.80
2022-10-17T15:08:48.300Z,7.78
2022-10-17T15:12:57.550Z,7.70
2022-10-17T15:17:00.712Z,7.28
2022-10-17T15:21:11.297Z,6.80
2022-10-17T15:25:20.963Z,11.90
2022-10-17T15:29:22.623Z,8.18
2022-10-17T15:33:24.304Z,8.05
2022-10-17T15:37:26.109Z,6.85
2022-10-17T15:41:30.509Z,8.18
2022-10-17T15:45:33.291Z,7.93
2022-10-17T15:49:34.941Z,9.68
2022-10-17T15:53:37.108Z,7.72
2022-10-17T15:57:42.534Z,9.18
2022-10-17T16:01:44.523Z,11.68
2022-10-17T16:05:46.239Z,10.90
2022-10-17T16:09:48.277Z,10.48
2022-10-17T16:13:53.311Z,9.48
2022-10-17T16:17:56.973Z,7.72
2022-10-17T16:22:04.343Z,8.82
2022-10-17T16:26:07.346Z,7.88
2022-10-17T16:30:09.179Z,12.18
2022-10-17T16:34:13.272Z,8.20
2022-10-17T16:38:15.123Z,12.38
2022-10-17T16:42:16.782Z,11.10
2022-10-17T16:46:19.620Z,14.77
2022-10-17T16:50:21.498Z,14.20
2022-10-17T16:54:23.172Z,15.45
2022-10-17T16:58:27.381Z,13.13
2022-10-17T17:02:29.204Z,11.05
2022-10-17T17:06:31.069Z,13.05
2022-10-17T17:10:32.708Z,13.00
2022-10-17T17:14:34.345Z,14.75
2022-10-17T17:18:36.546Z,18.35
2022-10-17T17:22:38.207Z,15.48
2022-10-17T17:26:41.003Z,15.90
2022-10-17T17:30:42.680Z,14.13
2022-10-17T17:34:44.351Z,13.68
2022-10-17T17:38:46.959Z,13.85
2022-10-17T17:42:48.693Z,14.10
2022-10-17T17:46:50.466Z,13.95
2022-10-17T17:50:52.179Z,16.90
2022-10-17T17:54:53.900Z,17.08
2022-10-17T17:58:58.170Z,15.57
2022-10-17T18:02:59.817Z,17.23
2022-10-17T18:07:01.788Z,25.02
2022-10-17T18:11:04.399Z,16.80
2022-10-17T18:15:06.617Z,17.25
2022-10-17T18:19:10.455Z,16.42
2022-10-17T18:23:12.098Z,15.93
2022-10-17T18:27:15.974Z,14.52
2022-10-17T18:31:24.082Z,12.57
2022-10-17T18:35:25.765Z,17.30
2022-10-17T18:39:27.403Z,14.68
2022-10-17T18:43:29.053Z,15.10
2022-10-17T18:47:30.897Z,16.17
2022-10-17T18:51:32.715Z,10.55
2022-10-17T18:55:34.419Z,14.50
2022-10-17T18:59:37.286Z,15.75
2022-10-17T19:03:38.991Z,18.63
2022-10-17T19:07:40.623Z,18.05
2022-10-17T19:11:42.892Z,16.80
2022-10-17T19:15:44.590Z,16.42
2022-10-17T19:19:50.241Z,15.57
2022-10-17T19:23:55.802Z,21.33
2022-10-17T19:27:57.915Z,27.27
2022-10-17T19:32:00.708Z,21.20
2022-10-17T19:36:05.553Z,23.42
2022-10-17T19:40:08.018Z,32.80
2022-10-17T19:44:10.152Z,20.90
2022-10-17T19:48:11.753Z,23.02
2022-10-17T19:52:13.499Z,19.58
2022-10-17T19:56:18.556Z,17.25
2022-10-17T20:00:20.215Z,17.88
2022-10-17T20:04:23.940Z,16.85
2022-10-17T20:12:32.614Z,16.10
2022-10-17T20:16:36.239Z,14.40
2022-10-17T20:20:37.944Z,13.23
2022-10-17T20:24:39.560Z,14.68
2022-10-17T20:28:42.171Z,15.52
2022-10-17T20:32:43.824Z,14.80
2022-10-17T20:36:46.096Z,14.38
2022-10-17T20:40:47.783Z,15.50
2022-10-17T20:44:49.409Z,11.15
2022-10-17T20:48:55.067Z,11.10
2022-10-17T20:53:12.337Z,11.55
2022-10-17T20:57:18.422Z,11.00
2022-10-17T21:01:21.431Z,12.70
2022-10-17T21:05:23.172Z,13.13
2022-10-17T21:09:25.054Z,8.57
2022-10-17T21:13:26.688Z,10.57
2022-10-17T21:17:28.454Z,11.50
2022-10-17T21:21:33.767Z,12.50
2022-10-17T21:25:35.501Z,9.20
2022-10-17T21:29:37.172Z,7.43
2022-10-17T21:33:40.619Z,8.35
2022-10-17T21:37:42.305Z,10.10
2022-10-17T21:41:44.943Z,10.63
2022-10-17T21:45:46.627Z,12.18
2022-10-17T21:49:51.228Z,9.77
2022-10-17T21:53:54.203Z,10.50
2022-10-17T21:57:55.832Z,9.60
2022-10-17T22:01:57.519Z,9.25
2022-10-17T22:06:07.143Z,9.73
2022-10-17T22:10:20.894Z,12.27
2022-10-17T22:14:24.731Z,11.38
2022-10-17T22:18:26.442Z,10.32
2022-10-17T22:22:28.057Z,10.75
2022-10-17T22:26:31.577Z,9.07
2022-10-17T22:30:33.464Z,10.52
2022-10-17T22:34:35.307Z,7.57
2022-10-17T22:38:37.028Z,7.70
2022-10-17T22:42:38.955Z,8.13
2022-10-17T22:46:40.763Z,16.10
2022-10-17T22:50:42.450Z,8.40
2022-10-17T22:54:44.133Z,7.82
2022-10-17T22:58:46.319Z,9.95
2022-10-17T23:02:47.977Z,7.68
2022-10-17T23:06:49.633Z,7.20
2022-10-17T23:10:51.340Z,8.95
2022-10-17T23:14:52.963Z,7.65
2022-10-17T23:18:54.629Z,10.18
2022-10-17T23:22:57.084Z,7.95
2022-10-17T23:26:58.873Z,9.32
2022-10-17T23:31:15.191Z,7.25
2022-10-17T23:35:16.855Z,9.48
2022-10-17T23:39:18.610Z,15.07
2022-10-17T23:43:20.244Z,11.15
2022-10-17T23:47:22.121Z,11.52
2022-10-17T23:51:24.047Z,9.00
2022-10-17T23:55:25.702Z,12.68
2022-10-17T23:59:27.471Z,9.27
